createdAt,value
2019-03-22T00:02:12.856Z,102915.77
2019-03-22T00:04:43.499Z,102909.45
2019-03-22T00:07:14.138Z,102909.45
2019-03-22T00:09:44.736Z,102898.68
2019-03-22T00:12:15.330Z,102891.09
2019-03-22T00:14:45.946Z,102878.28
2019-03-22T00:17:16.540Z,102878.28
2019-03-22T00:19:47.186Z,102873.77
2019-03-22T00:22:17.764Z,102873.06
2019-03-22T00:24:48.380Z,102857.22
2019-03-22T00:27:19.120Z,102869.53
2019-03-22T00:29:49.747Z,102871.39
2019-03-22T00:32:20.354Z,102878.42
2019-03-22T00:34:50.952Z,102879.36
2019-03-22T00:37:21.568Z,102875.61
2019-03-22T00:39:52.194Z,102865.58
2019-03-22T00:42:25.170Z,102861.30
2019-03-22T00:44:55.773Z,102852.59
2019-03-22T00:47:26.351Z,102854.59
2019-03-22T00:49:56.975Z,102854.59
2019-03-22T00:52:27.554Z,102858.58
2019-03-22T00:54:58.178Z,102850.94
2019-03-22T00:57:29.004Z,102850.94
2019-03-22T00:59:59.558Z,102854.28
2019-03-22T01:02:30.114Z,102856.99
2019-03-22T01:05:00.770Z,102845.69
2019-03-22T01:07:31.332Z,102847.92
2019-03-22T01:10:02.850Z,102847.02
2019-03-22T01:12:33.488Z,102848.06
2019-03-22T01:15:04.282Z,102826.28
2019-03-22T01:17:34.851Z,102853.50
2019-03-22T01:20:06.360Z,102853.50
2019-03-22T01:22:36.947Z,102846.05
2019-03-22T01:25:07.638Z,102853.39
2019-03-22T01:27:40.832Z,102856.22
2019-03-22T01:30:11.032Z,102862.31
2019-03-22T01:32:41.623Z,102856.93
2019-03-22T01:35:12.310Z,102856.93
2019-03-22T01:37:42.901Z,102859.15
2019-03-22T01:40:13.645Z,102850.86
2019-03-22T01:42:44.321Z,102864.69
2019-03-22T01:45:15.354Z,102863.59
2019-03-22T01:47:45.914Z,102854.36
2019-03-22T01:50:16.570Z,102862.31
2019-03-22T01:52:47.200Z,102862.31
2019-03-22T01:55:17.815Z,102865.31
2019-03-22T01:57:53.704Z,102863.72
2019-03-22T02:00:20.884Z,102863.72
2019-03-22T02:02:51.484Z,102862.50
2019-03-22T02:05:22.122Z,102869.23
2019-03-22T02:07:52.722Z,102863.22
2019-03-22T02:10:23.342Z,102866.60
2019-03-22T02:12:53.924Z,102864.25
2019-03-22T02:15:24.536Z,102865.45
2019-03-22T02:17:55.182Z,102858.65
2019-03-22T02:20:25.800Z,102858.65
2019-03-22T02:22:56.474Z,102862.08
2019-03-22T02:25:27.077Z,102857.09
2019-03-22T02:28:04.225Z,102852.17
2019-03-22T02:30:29.999Z,102848.17
2019-03-22T02:33:00.573Z,102846.38
2019-03-22T02:35:31.173Z,102845.55
2019-03-22T02:38:01.758Z,102839.64
2019-03-22T02:40:32.401Z,102839.64
2019-03-22T02:43:03.004Z,102833.44
2019-03-22T02:45:33.614Z,102841.82
2019-03-22T02:48:04.321Z,102840.68
2019-03-22T02:50:34.958Z,102851.25
2019-03-22T02:53:05.548Z,102853.16
2019-03-22T02:55:36.219Z,102855.73
2019-03-22T02:58:19.893Z,102862.38
2019-03-22T03:00:39.317Z,102857.72
2019-03-22T03:03:09.981Z,102859.18
2019-03-22T03:05:40.628Z,102853.87
2019-03-22T03:08:11.222Z,102847.34
2019-03-22T03:10:41.844Z,102842.84
2019-03-22T03:13:12.423Z,102840.09
2019-03-22T03:15:43.045Z,102839.07
2019-03-22T03:18:13.683Z,102842.53
2019-03-22T03:20:44.338Z,102842.53
2019-03-22T03:23:14.884Z,102841.69
2019-03-22T03:25:45.494Z,102844.38
2019-03-22T03:28:16.249Z,102844.38
2019-03-22T03:30:46.868Z,102839.18
2019-03-22T03:33:17.534Z,102836.77
2019-03-22T03:35:48.103Z,102841.52
2019-03-22T03:38:18.753Z,102842.33
2019-03-22T03:40:49.388Z,102838.67
2019-03-22T03:43:19.977Z,102844.97
2019-03-22T03:45:50.678Z,102846.47
2019-03-22T03:48:21.286Z,102846.05
2019-03-22T03:50:51.950Z,102851.23
2019-03-22T03:53:22.545Z,102842.41
2019-03-22T03:55:53.194Z,102839.39
2019-03-22T03:58:23.773Z,102837.98
2019-03-22T04:00:54.424Z,102830.41
2019-03-22T04:03:25.127Z,102824.41
2019-03-22T04:05:55.718Z,102824.02
2019-03-22T04:08:26.314Z,102828.62
2019-03-22T04:10:56.925Z,102832.33
2019-03-22T04:13:27.511Z,102833.10
2019-03-22T04:15:58.141Z,102841.64
2019-03-22T04:18:28.739Z,102833.82
2019-03-22T04:20:59.340Z,102833.16
2019-03-22T04:23:30.009Z,102830.09
2019-03-22T04:26:00.630Z,102831.70
2019-03-22T04:28:31.187Z,102827.39
2019-03-22T04:31:01.876Z,102841.91
2019-03-22T04:33:32.512Z,102843.99
2019-03-22T04:36:03.165Z,102846.63
2019-03-22T04:38:33.748Z,102848.04
2019-03-22T04:41:04.360Z,102842.33
2019-03-22T04:43:34.937Z,102840.03
2019-03-22T04:46:06.184Z,102845.20
2019-03-22T04:48:38.083Z,102850.80
2019-03-22T04:51:09.718Z,102851.70
2019-03-22T04:53:46.938Z,102851.36
2019-03-22T04:56:18.974Z,102855.60
2019-03-22T04:58:51.447Z,102855.14
2019-03-22T05:01:23.285Z,102860.54
2019-03-22T05:03:54.439Z,102870.10
2019-03-22T05:06:25.263Z,102878.53
2019-03-22T05:08:56.893Z,102879.77
2019-03-22T05:11:28.012Z,102875.67
2019-03-22T05:13:59.568Z,102871.12
2019-03-22T05:16:30.767Z,102866.13
2019-03-22T05:19:02.794Z,102868.03
2019-03-22T05:21:33.820Z,102865.27
2019-03-22T05:24:05.699Z,102867.40
2019-03-22T05:26:37.808Z,102874.06
2019-03-22T05:29:08.726Z,102862.26
2019-03-22T05:31:58.693Z,102874.64
2019-03-22T05:34:29.463Z,102877.75
2019-03-22T05:37:00.130Z,102889.55
2019-03-22T05:39:30.726Z,102891.83
2019-03-22T05:42:03.282Z,102886.97
2019-03-22T05:44:33.908Z,102888.77
2019-03-22T05:47:04.491Z,102886.58
2019-03-22T05:49:35.116Z,102888.31
2019-03-22T05:52:05.861Z,102892.94
2019-03-22T05:54:36.440Z,102886.34
2019-03-22T05:57:13.434Z,102893.03
2019-03-22T05:59:42.905Z,102896.22
2019-03-22T06:02:11.906Z,102904.68
2019-03-22T06:04:42.522Z,102920.94
2019-03-22T06:07:13.198Z,102923.95
2019-03-22T06:09:43.766Z,102930.18
2019-03-22T06:12:14.368Z,102923.53
2019-03-22T06:14:44.980Z,102922.70
2019-03-22T06:17:15.600Z,102936.01
2019-03-22T06:19:46.184Z,102940.72
2019-03-22T06:22:16.816Z,102938.67
2019-03-22T06:24:47.466Z,102936.75
2019-03-22T06:27:18.098Z,102935.54
2019-03-22T06:29:54.029Z,102938.81
2019-03-22T06:32:21.055Z,102940.89
2019-03-22T06:34:51.662Z,102947.88
2019-03-22T06:37:22.263Z,102952.33
2019-03-22T06:39:52.944Z,102953.40
2019-03-22T06:42:23.514Z,102950.48
2019-03-22T06:44:54.113Z,102953.85
2019-03-22T06:47:24.670Z,102958.33
2019-03-22T06:49:55.258Z,102955.45
2019-03-22T06:52:25.846Z,102951.83
2019-03-22T06:54:56.480Z,102948.86
2019-03-22T06:57:27.090Z,102940.12
2019-03-22T07:00:06.288Z,102935.33
2019-03-22T07:02:30.040Z,102928.30
2019-03-22T07:05:00.635Z,102927.45
2019-03-22T07:07:31.237Z,102928.52
2019-03-22T07:10:02.682Z,102920.84
2019-03-22T07:12:33.264Z,102911.98
2019-03-22T07:15:06.187Z,102919.77
2019-03-22T07:17:36.750Z,102915.80
2019-03-22T07:20:07.502Z,102922.72
2019-03-22T07:22:38.084Z,102923.23
2019-03-22T07:25:08.703Z,102925.44
2019-03-22T07:27:39.277Z,102932.73
2019-03-22T07:30:18.491Z,102932.27
2019-03-22T07:32:42.273Z,102925.94
2019-03-22T07:35:12.960Z,102917.00
2019-03-22T07:37:43.539Z,102916.22
2019-03-22T07:40:14.195Z,102914.28
2019-03-22T07:42:44.805Z,102921.61
2019-03-22T07:45:15.399Z,102914.30
2019-03-22T07:47:45.961Z,102915.83
2019-03-22T07:50:16.651Z,102910.63
2019-03-22T07:52:47.197Z,102915.59
2019-03-22T07:55:17.811Z,102920.38
2019-03-22T07:57:48.372Z,102921.53
2019-03-22T08:00:30.174Z,102921.55
2019-03-22T08:02:51.291Z,102914.23
2019-03-22T08:05:21.905Z,102917.95
2019-03-22T08:07:52.503Z,102916.03
2019-03-22T08:10:23.147Z,102914.75
2019-03-22T08:12:53.729Z,102903.20
2019-03-22T08:15:32.205Z,102907.81
2019-03-22T08:18:02.912Z,102909.16
2019-03-22T08:20:33.488Z,102904.57
2019-03-22T08:23:05.629Z,102907.05
2019-03-22T08:25:36.239Z,102904.75
2019-03-22T08:28:06.807Z,102903.20
2019-03-22T08:30:42.986Z,102901.23
2019-03-22T08:33:09.715Z,102900.63
2019-03-22T08:35:40.367Z,102901.28
2019-03-22T08:38:11.090Z,102892.89
2019-03-22T08:40:42.182Z,102897.31
2019-03-22T08:43:12.826Z,102901.42
2019-03-22T08:45:43.538Z,102904.30
2019-03-22T08:48:14.189Z,102902.83
2019-03-22T08:50:44.947Z,102900.25
2019-03-22T08:53:33.347Z,102899.69
2019-03-22T08:56:04.020Z,102900.02
2019-03-22T08:58:34.799Z,102894.31
2019-03-22T09:01:05.845Z,102896.12
2019-03-22T09:03:36.518Z,102894.50
2019-03-22T09:06:07.975Z,102889.39
2019-03-22T09:08:38.741Z,102889.39
2019-03-22T09:11:09.423Z,102890.64
2019-03-22T09:13:40.085Z,102889.89
2019-03-22T09:16:10.753Z,102882.05
2019-03-22T09:18:41.428Z,102877.31
2019-03-22T09:21:12.927Z,102883.25
2019-03-22T09:23:43.571Z,102873.93
2019-03-22T09:26:14.247Z,102877.31
2019-03-22T09:28:45.010Z,102878.55
2019-03-22T09:31:15.618Z,102878.30
2019-03-22T09:33:46.146Z,102861.92
2019-03-22T09:36:16.724Z,102869.58
2019-03-22T09:38:47.319Z,102869.58
2019-03-22T09:41:18.006Z,102874.60
2019-03-22T09:43:48.580Z,102864.97
2019-03-22T09:46:19.246Z,102866.26
2019-03-22T09:48:49.858Z,102866.26
2019-03-22T09:51:20.503Z,102864.78
2019-03-22T09:53:51.036Z,102861.85
2019-03-22T09:56:21.608Z,102816.47
2019-03-22T09:58:52.180Z,102846.42
2019-03-22T10:01:24.035Z,102846.80
2019-03-22T10:03:55.044Z,102838.17
2019-03-22T10:06:25.620Z,102845.56
2019-03-22T10:08:56.161Z,102837.95
2019-03-22T10:11:26.769Z,102837.95
2019-03-22T10:13:57.462Z,102834.70
2019-03-22T10:16:28.098Z,102830.34
2019-03-22T10:18:58.779Z,102830.00
2019-03-22T10:21:29.420Z,102831.58
2019-03-22T10:24:00.109Z,102824.67
2019-03-22T10:26:30.751Z,102826.33
2019-03-22T10:29:01.305Z,102827.93
2019-03-22T10:31:37.029Z,102828.21
2019-03-22T10:34:04.242Z,102823.32
2019-03-22T10:36:34.927Z,102822.11
2019-03-22T10:39:08.509Z,102818.08
2019-03-22T10:41:39.104Z,102806.80
2019-03-22T10:44:09.845Z,102806.59
2019-03-22T10:46:40.539Z,102800.59
2019-03-22T10:49:12.143Z,102797.17
2019-03-22T10:51:55.818Z,102792.83
2019-03-22T10:54:15.060Z,102796.75
2019-03-22T10:56:45.648Z,102788.34
2019-03-22T10:59:16.265Z,102785.35
2019-03-22T11:02:02.234Z,102787.52
2019-03-22T11:04:19.253Z,102777.77
2019-03-22T11:06:49.846Z,102777.23
2019-03-22T11:09:20.556Z,102777.77
2019-03-22T11:11:51.908Z,102777.13
2019-03-22T11:14:22.623Z,102773.92
2019-03-22T11:16:53.267Z,102771.12
2019-03-22T11:19:23.950Z,102771.32
2019-03-22T11:21:54.509Z,102765.31
2019-03-22T11:24:25.142Z,102762.89
2019-03-22T11:26:55.749Z,102757.28
2019-03-22T11:29:26.390Z,102754.91
2019-03-22T11:31:57.093Z,102749.09
2019-03-22T11:34:27.696Z,102744.08
2019-03-22T11:36:58.385Z,102742.25
2019-03-22T11:39:28.987Z,102732.70
2019-03-22T11:41:59.560Z,102731.45
2019-03-22T11:44:30.162Z,102729.67
2019-03-22T11:47:00.751Z,102726.11
2019-03-22T11:49:31.367Z,102717.67
2019-03-22T11:52:01.920Z,102714.63
2019-03-22T11:54:32.504Z,102706.77
2019-03-22T11:57:03.186Z,102706.13
2019-03-22T11:59:33.800Z,102700.92
2019-03-22T12:02:06.218Z,102700.84
2019-03-22T12:04:36.860Z,102692.31
2019-03-22T12:07:07.452Z,102690.97
2019-03-22T12:09:38.075Z,102680.40
2019-03-22T12:12:08.658Z,102673.16
2019-03-22T12:14:39.272Z,102666.19
2019-03-22T12:17:09.882Z,102659.21
2019-03-22T12:19:40.530Z,102658.03
2019-03-22T12:22:11.136Z,102644.64
2019-03-22T12:24:41.839Z,102652.93
2019-03-22T12:27:12.575Z,102650.69
2019-03-22T12:29:43.274Z,102657.37
2019-03-22T12:32:13.892Z,102655.98
2019-03-22T12:34:44.499Z,102645.07
2019-03-22T12:37:15.119Z,102632.60
2019-03-22T12:39:45.895Z,102634.28
2019-03-22T12:42:16.452Z,102626.16
2019-03-22T12:44:47.089Z,102628.96
2019-03-22T12:47:17.731Z,102627.36
2019-03-22T12:49:48.368Z,102627.88
2019-03-22T12:52:19.069Z,102622.84
2019-03-22T12:54:49.678Z,102619.48
2019-03-22T12:57:20.325Z,102611.66
2019-03-22T12:59:51.105Z,102612.72
2019-03-22T13:02:21.731Z,102602.44
2019-03-22T13:04:52.384Z,102613.41
2019-03-22T13:07:23.027Z,102612.44
2019-03-22T13:09:53.780Z,102597.02
2019-03-22T13:12:24.389Z,102588.81
2019-03-22T13:14:56.683Z,102587.03
2019-03-22T13:17:27.478Z,102589.97
2019-03-22T13:19:58.106Z,102586.52
2019-03-22T13:22:28.691Z,102580.41
2019-03-22T13:24:59.319Z,102578.14
2019-03-22T13:27:29.973Z,102565.14
2019-03-22T13:30:00.573Z,102563.47
2019-03-22T13:32:31.197Z,102560.47
2019-03-22T13:35:01.770Z,102555.70
2019-03-22T13:37:32.344Z,102557.61
2019-03-22T13:40:03.022Z,102552.41
2019-03-22T13:42:33.572Z,102545.78
2019-03-22T13:45:04.591Z,102542.09
2019-03-22T13:47:35.348Z,102542.45
2019-03-22T13:50:07.772Z,102539.29
2019-03-22T13:52:38.431Z,102539.80
2019-03-22T13:55:09.209Z,102538.52
2019-03-22T13:57:39.785Z,102537.84
2019-03-22T14:00:10.599Z,102534.23
2019-03-22T14:02:41.250Z,102530.61
2019-03-22T14:05:11.844Z,102519.25
2019-03-22T14:07:42.460Z,102521.59
2019-03-22T14:10:21.688Z,102515.77
2019-03-22T14:12:52.315Z,102511.19
2019-03-22T14:15:22.968Z,102511.24
2019-03-22T14:17:53.517Z,102505.28
2019-03-22T14:20:24.105Z,102500.11
2019-03-22T14:22:54.680Z,102494.63
2019-03-22T14:25:25.288Z,102493.27
2019-03-22T14:27:55.861Z,102491.50
2019-03-22T14:30:26.498Z,102490.92
2019-03-22T14:32:57.079Z,102487.11
2019-03-22T14:35:28.582Z,102491.92
2019-03-22T14:37:59.345Z,102485.86
2019-03-22T14:40:30.008Z,102481.66
2019-03-22T14:43:00.579Z,102482.78
2019-03-22T14:45:31.187Z,102477.98
2019-03-22T14:48:01.759Z,102470.87
2019-03-22T14:50:32.324Z,102469.91
2019-03-22T14:53:02.911Z,102466.91
2019-03-22T14:55:33.523Z,102462.77
2019-03-22T14:58:04.097Z,102459.19
2019-03-22T15:00:34.646Z,102455.47
2019-03-22T15:03:24.124Z,102449.46
2019-03-22T15:05:56.060Z,102446.23
2019-03-22T15:08:26.621Z,102445.91
2019-03-22T15:10:57.203Z,102441.78
2019-03-22T15:13:45.768Z,102441.04
2019-03-22T15:16:44.180Z,102439.52
2019-03-22T15:19:37.231Z,102432.97
2019-03-22T15:22:25.363Z,102429.59
2019-03-22T15:25:17.890Z,102430.37
2019-03-22T15:28:10.613Z,102428.73
2019-03-22T15:31:09.291Z,102423.59
2019-03-22T15:33:48.316Z,102417.39
2019-03-22T15:36:36.823Z,102413.03
2019-03-22T15:42:04.273Z,102398.41
2019-03-22T15:44:34.804Z,102397.59
2019-03-22T15:47:05.426Z,102393.94
2019-03-22T15:49:35.992Z,102381.38
2019-03-22T15:52:06.568Z,102386.37
2019-03-22T15:54:37.124Z,102379.36
2019-03-22T15:57:07.832Z,102373.42
2019-03-22T15:59:39.387Z,102373.30
2019-03-22T16:02:10.141Z,102367.09
2019-03-22T16:04:40.741Z,102362.97
2019-03-22T16:07:11.345Z,102353.25
2019-03-22T16:09:41.902Z,102350.77
2019-03-22T16:12:12.560Z,102350.08
2019-03-22T16:14:43.164Z,102346.64
2019-03-22T16:17:13.845Z,102339.23
2019-03-22T16:19:44.458Z,102345.95
2019-03-22T16:22:15.014Z,102342.00
2019-03-22T16:24:45.630Z,102334.98
2019-03-22T16:27:16.175Z,102333.28
2019-03-22T16:29:46.790Z,102331.49
2019-03-22T16:32:17.358Z,102326.62
2019-03-22T16:34:47.950Z,102330.48
2019-03-22T16:37:18.513Z,102325.74
2019-03-22T16:39:49.138Z,102326.70
2019-03-22T16:42:19.724Z,102318.91
2019-03-22T16:44:50.337Z,102322.74
2019-03-22T16:47:20.900Z,102324.61
2019-03-22T16:49:51.476Z,102323.92
2019-03-22T16:52:22.010Z,102320.14
2019-03-22T16:54:52.611Z,102319.02
2019-03-22T16:57:23.200Z,102318.62
2019-03-22T16:59:53.848Z,102315.95
2019-03-22T17:02:24.432Z,102309.45
2019-03-22T17:04:55.004Z,102311.16
2019-03-22T17:07:25.557Z,102305.20
2019-03-22T17:09:56.179Z,102315.94
2019-03-22T17:12:26.802Z,102312.58
2019-03-22T17:14:57.384Z,102309.30
2019-03-22T17:17:27.933Z,102307.09
2019-03-22T17:19:58.545Z,102304.33
2019-03-22T17:22:29.107Z,102305.43
2019-03-22T17:24:59.695Z,102301.98
2019-03-22T17:27:30.261Z,102308.69
2019-03-22T17:30:02.373Z,102304.58
2019-03-22T17:32:32.979Z,102297.69
2019-03-22T17:35:03.618Z,102290.24
2019-03-22T17:37:34.225Z,102293.24
2019-03-22T17:40:05.153Z,102297.14
2019-03-22T17:42:35.801Z,102299.30
2019-03-22T17:45:07.229Z,102292.14
2019-03-22T17:47:37.836Z,102299.36
2019-03-22T17:50:08.608Z,102291.11
2019-03-22T17:52:39.263Z,102295.17
2019-03-22T17:55:11.307Z,102298.98
2019-03-22T17:57:41.907Z,102291.06
2019-03-22T18:00:13.154Z,102296.41
2019-03-22T18:02:43.803Z,102295.86
2019-03-22T18:05:14.845Z,102299.86
2019-03-22T18:07:45.454Z,102296.26
2019-03-22T18:10:16.198Z,102301.75
2019-03-22T18:12:46.813Z,102301.53
2019-03-22T18:15:17.635Z,102297.05
2019-03-22T18:17:48.246Z,102303.52
2019-03-22T18:20:18.849Z,102296.14
2019-03-22T18:22:49.540Z,102299.61
2019-03-22T18:25:20.077Z,102299.61
2019-03-22T18:27:50.757Z,102298.98
2019-03-22T18:30:21.351Z,102298.17
2019-03-22T18:32:51.983Z,102302.02
2019-03-22T18:35:22.680Z,102301.40
2019-03-22T18:37:53.304Z,102302.92
2019-03-22T18:40:23.922Z,102306.67
2019-03-22T18:42:54.531Z,102308.25
2019-03-22T18:45:25.117Z,102302.52
2019-03-22T18:47:55.714Z,102307.45
2019-03-22T18:50:26.307Z,102307.92
2019-03-22T18:52:56.909Z,102311.59
2019-03-22T18:55:27.535Z,102320.52
2019-03-22T18:57:58.243Z,102312.94
2019-03-22T19:00:28.939Z,102319.27
2019-03-22T19:02:59.714Z,102316.31
2019-03-22T19:05:30.474Z,102317.79
2019-03-22T19:08:05.754Z,102324.84
2019-03-22T19:10:36.376Z,102319.14
2019-03-22T19:13:07.884Z,102322.44
2019-03-22T19:15:38.551Z,102320.95
2019-03-22T19:18:09.230Z,102319.78
2019-03-22T19:20:39.925Z,102320.48
2019-03-22T19:23:10.699Z,102319.78
2019-03-22T19:25:41.395Z,102322.15
2019-03-22T19:28:12.132Z,102323.74
2019-03-22T19:30:42.806Z,102327.71
2019-03-22T19:33:13.472Z,102322.82
2019-03-22T19:35:44.158Z,102321.69
2019-03-22T19:38:14.812Z,102324.80
2019-03-22T19:40:45.576Z,102321.25
2019-03-22T19:43:16.365Z,102322.22
2019-03-22T19:45:46.985Z,102325.77
2019-03-22T19:48:17.689Z,102315.18
2019-03-22T19:50:48.271Z,102312.31
2019-03-22T19:53:18.896Z,102316.20
2019-03-22T19:55:49.458Z,102315.73
2019-03-22T19:58:20.059Z,102317.77
2019-03-22T20:00:50.671Z,102309.84
2019-03-22T20:03:21.932Z,102311.20
2019-03-22T20:05:52.603Z,102310.47
2019-03-22T20:08:23.269Z,102312.22
2019-03-22T20:10:53.877Z,102321.17
2019-03-22T20:13:24.524Z,102314.00
2019-03-22T20:15:55.137Z,102312.73
2019-03-22T20:18:25.743Z,102311.89
2019-03-22T20:20:56.334Z,102310.25
2019-03-22T20:23:26.926Z,102303.66
2019-03-22T20:25:57.534Z,102301.64
2019-03-22T20:28:28.130Z,102298.95
2019-03-22T20:30:58.707Z,102296.58
2019-03-22T20:33:29.314Z,102289.08
2019-03-22T20:35:59.930Z,102282.91
2019-03-22T20:38:30.533Z,102276.80
2019-03-22T20:41:01.115Z,102275.87
2019-03-22T20:43:31.751Z,102274.81
2019-03-22T20:46:02.387Z,102276.20
2019-03-22T20:48:32.978Z,102268.99
2019-03-22T20:51:03.717Z,102264.06
2019-03-22T20:53:34.285Z,102266.00
2019-03-22T20:56:04.952Z,102259.42
2019-03-22T20:58:35.645Z,102264.59
2019-03-22T21:01:06.270Z,102263.68
2019-03-22T21:03:36.904Z,102266.12
2019-03-22T21:06:07.670Z,102266.37
2019-03-22T21:08:38.288Z,102265.37
2019-03-22T21:11:08.901Z,102260.52
2019-03-22T21:13:39.470Z,102254.72
2019-03-22T21:16:10.102Z,102259.63
2019-03-22T21:18:40.709Z,102253.50
2019-03-22T21:21:11.382Z,102254.84
2019-03-22T21:23:41.984Z,102259.88
2019-03-22T21:26:12.620Z,102249.36
2019-03-22T21:28:43.199Z,102252.24
2019-03-22T21:31:13.918Z,102250.06
2019-03-22T21:33:44.502Z,102247.87
2019-03-22T21:36:15.140Z,102248.47
2019-03-22T21:38:45.790Z,102246.61
2019-03-22T21:41:16.403Z,102240.44
2019-03-22T21:43:47.023Z,102238.55
2019-03-22T21:46:17.790Z,102241.55
2019-03-22T21:48:48.477Z,102237.92
2019-03-22T21:51:19.108Z,102232.17
2019-03-22T21:53:49.727Z,102230.88
2019-03-22T21:56:20.359Z,102229.09
2019-03-22T21:58:50.994Z,102221.74
2019-03-22T22:01:21.612Z,102223.30
2019-03-22T22:03:52.280Z,102218.95
2019-03-22T22:06:23.026Z,102208.48
2019-03-22T22:08:53.618Z,102213.83
2019-03-22T22:11:25.030Z,102203.41
2019-03-22T22:13:55.669Z,102204.91
2019-03-22T22:16:26.324Z,102197.70
2019-03-22T22:18:57.040Z,102192.72
2019-03-22T22:21:27.757Z,102187.77
2019-03-22T22:23:58.459Z,102180.98
2019-03-22T22:26:29.108Z,102180.98
2019-03-22T22:28:59.750Z,102180.08
2019-03-22T22:31:30.427Z,102180.50
2019-03-22T22:34:01.132Z,102175.23
2019-03-22T22:36:31.816Z,102175.02
2019-03-22T22:39:02.458Z,102174.03
2019-03-22T22:41:33.227Z,102169.77
2019-03-22T22:44:03.830Z,102172.95
2019-03-22T22:46:34.456Z,102166.84
2019-03-22T22:49:05.162Z,102166.20
2019-03-22T22:51:35.782Z,102163.80
2019-03-22T22:54:06.396Z,102153.23
2019-03-22T22:56:37.018Z,102156.84
2019-03-22T22:59:07.746Z,102151.96
2019-03-22T23:01:38.352Z,102150.22
2019-03-22T23:04:09.000Z,102149.98
2019-03-22T23:06:39.684Z,102143.12
2019-03-22T23:09:10.915Z,102148.34
2019-03-22T23:11:41.606Z,102140.84
2019-03-22T23:14:12.251Z,102138.50
2019-03-22T23:16:42.934Z,102134.97
2019-03-22T23:19:13.487Z,102126.41
2019-03-22T23:21:45.808Z,102121.53
2019-03-22T23:24:15.628Z,102124.17
2019-03-22T23:26:45.500Z,102129.32
2019-03-22T23:29:15.321Z,102127.66
2019-03-22T23:31:45.163Z,102127.66
2019-03-22T23:34:14.961Z,102115.75
2019-03-22T23:36:44.760Z,102115.75
2019-03-22T23:39:14.585Z,102124.41
2019-03-22T23:41:44.368Z,102101.03
2019-03-22T23:44:14.186Z,102101.03
2019-03-22T23:46:43.990Z,102120.58
2019-03-22T23:49:13.854Z,102114.42
2019-03-22T23:51:43.669Z,102110.19
2019-03-22T23:54:13.483Z,102114.01
2019-03-22T23:56:43.261Z,102098.28
2019-03-22T23:59:13.092Z,102098.28
